createdAt,value
2018-09-24T00:00:39.672Z,91.30
2018-09-24T00:03:08.153Z,91.40
2018-09-24T00:05:36.633Z,91.30
2018-09-24T00:08:05.180Z,91.40
2018-09-24T00:10:33.634Z,91.40
2018-09-24T00:13:02.119Z,91.60
2018-09-24T00:15:30.592Z,91.50
2018-09-24T00:17:59.076Z,91.60
2018-09-24T00:20:27.574Z,91.80
2018-09-24T00:22:56.074Z,91.20
2018-09-24T00:25:24.591Z,91.50
2018-09-24T00:27:53.093Z,91.60
2018-09-24T00:30:21.500Z,91.60
2018-09-24T00:32:49.968Z,91.60
2018-09-24T00:35:18.389Z,91.60
2018-09-24T00:37:46.864Z,91.40
2018-09-24T00:40:15.290Z,91.40
2018-09-24T00:42:43.848Z,91.50
2018-09-24T00:45:12.275Z,91.40
2018-09-24T00:47:40.877Z,91.40
2018-09-24T00:50:09.261Z,91.40
2018-09-24T00:52:37.685Z,91.40
2018-09-24T00:55:06.166Z,91.40
2018-09-24T00:57:34.641Z,91.40
2018-09-24T01:00:05.390Z,91.60
2018-09-24T01:02:33.809Z,91.50
2018-09-24T01:05:02.285Z,91.50
2018-09-24T01:07:30.825Z,91.80
2018-09-24T01:09:59.341Z,92.10
2018-09-24T01:12:27.816Z,92.20
2018-09-24T01:14:56.349Z,92.20
2018-09-24T01:17:24.918Z,92.20
2018-09-24T01:19:53.443Z,92.20
2018-09-24T01:22:21.926Z,92.30
2018-09-24T01:24:50.380Z,92.30
2018-09-24T01:27:18.776Z,92.30
2018-09-24T01:29:47.209Z,92.30
2018-09-24T01:32:15.798Z,91.70
2018-09-24T01:34:44.254Z,91.70
2018-09-24T01:37:12.683Z,91.90
2018-09-24T01:39:41.112Z,92.10
2018-09-24T01:42:09.533Z,91.80
2018-09-24T01:44:37.974Z,91.70
2018-09-24T01:47:06.968Z,91.60
2018-09-24T01:49:35.448Z,91.80
2018-09-24T01:52:03.965Z,92.20
2018-09-24T01:54:32.392Z,91.70
2018-09-24T01:57:00.803Z,91.60
2018-09-24T01:59:29.360Z,91.40
2018-09-24T02:01:57.943Z,91.40
2018-09-24T02:04:26.493Z,91.00
2018-09-24T02:07:00.572Z,91.60
2018-09-24T02:09:29.150Z,91.60
2018-09-24T02:12:03.550Z,91.70
2018-09-24T02:14:32.032Z,91.50
2018-09-24T02:17:00.529Z,91.80
2018-09-24T02:19:29.037Z,91.50
2018-09-24T02:21:57.732Z,91.70
2018-09-24T02:24:26.413Z,92.20
2018-09-24T02:26:54.931Z,91.90
2018-09-24T02:29:23.488Z,92.20
2018-09-24T02:31:51.987Z,91.80
2018-09-24T02:34:27.985Z,91.00
2018-09-24T02:36:56.503Z,91.70
2018-09-24T02:39:25.163Z,91.70
2018-09-24T02:41:55.214Z,92.00
2018-09-24T02:44:25.093Z,92.20
2018-09-24T02:46:53.581Z,92.40
2018-09-24T02:49:22.090Z,92.20
2018-09-24T02:51:50.867Z,92.30
2018-09-24T02:54:19.317Z,92.90
2018-09-24T02:56:49.231Z,92.20
2018-09-24T02:59:17.977Z,92.20
2018-09-24T03:01:46.423Z,92.10
2018-09-24T03:04:14.845Z,92.40
2018-09-24T03:06:43.272Z,92.50
2018-09-24T03:09:17.649Z,92.20
2018-09-24T03:11:47.130Z,92.40
2018-09-24T03:14:25.089Z,92.10
2018-09-24T03:16:54.214Z,92.10
2018-09-24T03:19:22.935Z,92.40
2018-09-24T03:21:51.462Z,92.90
2018-09-24T03:24:19.956Z,92.90
2018-09-24T03:26:48.347Z,93.10
2018-09-24T03:29:23.488Z,92.60
2018-09-24T03:31:52.243Z,92.90
2018-09-24T03:34:20.614Z,93.20
2018-09-24T03:36:50.113Z,93.30
2018-09-24T03:39:18.809Z,94.00
2018-09-24T03:41:47.364Z,93.90
2018-09-24T03:44:15.732Z,94.30
2018-09-24T03:46:44.182Z,94.00
2018-09-24T03:49:12.611Z,94.10
2018-09-24T03:51:41.036Z,94.10
2018-09-24T03:54:10.547Z,94.10
2018-09-24T03:56:38.993Z,93.90
2018-09-24T03:59:07.647Z,94.00
2018-09-24T04:01:36.059Z,94.00
2018-09-24T04:04:09.772Z,94.00
2018-09-24T04:06:43.768Z,94.10
2018-09-24T04:12:17.279Z,94.60
2018-09-24T04:14:51.478Z,94.50
2018-09-24T04:17:25.241Z,94.40
2018-09-24T04:19:59.124Z,95.20
2018-09-24T04:22:33.051Z,95.00
2018-09-24T04:25:06.899Z,95.50
2018-09-24T04:27:40.750Z,94.90
2018-09-24T04:30:14.589Z,95.30
2018-09-24T04:32:48.420Z,95.20
2018-09-24T04:35:22.296Z,95.00
2018-09-24T04:37:56.039Z,95.00
2018-09-24T04:40:30.010Z,95.20
2018-09-24T04:43:03.725Z,95.10
2018-09-24T04:45:37.489Z,95.40
2018-09-24T04:48:11.367Z,95.50
2018-09-24T04:50:45.133Z,95.80
2018-09-24T04:53:22.212Z,96.30
2018-09-24T04:55:55.984Z,96.30
2018-09-24T04:58:29.849Z,95.80
2018-09-24T05:01:03.641Z,95.30
2018-09-24T05:03:37.530Z,95.10
2018-09-24T05:06:12.308Z,94.40
2018-09-24T05:08:46.109Z,94.30
2018-09-24T05:11:19.972Z,94.10
2018-09-24T05:13:53.703Z,94.70
2018-09-24T05:16:27.807Z,94.50
2018-09-24T05:19:01.709Z,94.80
2018-09-24T05:21:35.571Z,94.50
2018-09-24T05:24:09.475Z,94.70
2018-09-24T05:26:43.179Z,94.10
2018-09-24T05:29:17.077Z,94.60
2018-09-24T05:31:50.777Z,94.70
2018-09-24T05:34:24.698Z,94.50
2018-09-24T05:36:58.638Z,94.50
2018-09-24T05:39:32.535Z,94.60
2018-09-24T05:42:22.953Z,94.70
2018-09-24T05:44:56.711Z,94.70
2018-09-24T05:47:30.657Z,94.40
2018-09-24T05:50:04.386Z,94.50
2018-09-24T05:52:38.098Z,94.70
2018-09-24T05:55:12.129Z,94.70
2018-09-24T05:57:45.981Z,94.70
2018-09-24T06:00:19.811Z,94.80
2018-09-24T06:02:53.867Z,94.80
2018-09-24T06:05:27.701Z,95.10
2018-09-24T06:08:01.523Z,95.00
2018-09-24T06:10:35.398Z,95.20
2018-09-24T06:13:09.104Z,95.50
2018-09-24T06:15:42.922Z,95.10
2018-09-24T06:18:16.920Z,95.30
2018-09-24T06:20:50.706Z,95.10
2018-09-24T06:23:24.569Z,95.40
2018-09-24T06:25:59.397Z,95.50
2018-09-24T06:28:34.331Z,95.20
2018-09-24T06:31:08.043Z,95.70
2018-09-24T06:33:41.785Z,95.40
2018-09-24T06:36:15.541Z,95.20
2018-09-24T06:38:49.539Z,94.70
2018-09-24T06:41:23.663Z,94.60
2018-09-24T06:43:59.844Z,94.30
2018-09-24T06:46:35.642Z,94.20
2018-09-24T06:49:10.583Z,93.30
2018-09-24T06:51:44.476Z,92.40
2018-09-24T06:54:18.259Z,91.70
2018-09-24T06:56:52.257Z,91.80
2018-09-24T06:59:26.116Z,91.40
2018-09-24T07:02:00.020Z,91.00
2018-09-24T07:04:33.801Z,90.60
2018-09-24T07:07:07.613Z,90.70
2018-09-24T07:09:41.469Z,90.10
2018-09-24T07:12:15.318Z,89.80
2018-09-24T07:14:49.350Z,88.00
2018-09-24T07:17:23.317Z,87.50
2018-09-24T07:19:57.151Z,87.80
2018-09-24T07:22:31.404Z,87.20
2018-09-24T07:25:06.258Z,86.90
2018-09-24T07:27:40.456Z,87.10
2018-09-24T07:30:14.671Z,86.70
2018-09-24T07:32:48.406Z,86.70
2018-09-24T07:35:22.338Z,85.60
2018-09-24T07:37:56.348Z,85.30
2018-09-24T07:40:31.140Z,85.50
2018-09-24T07:43:05.185Z,85.00
2018-09-24T07:45:38.949Z,85.40
2018-09-24T07:48:13.150Z,84.30
2018-09-24T07:50:46.916Z,84.20
2018-09-24T07:53:20.752Z,84.30
2018-09-24T07:55:54.836Z,83.70
2018-09-24T07:58:29.312Z,82.90
2018-09-24T08:01:03.100Z,80.60
2018-09-24T08:03:36.866Z,79.20
2018-09-24T08:06:10.712Z,75.50
2018-09-24T08:08:44.611Z,75.60
2018-09-24T08:11:18.596Z,75.40
2018-09-24T08:13:52.439Z,72.20
2018-09-24T08:16:26.470Z,70.20
2018-09-24T08:19:00.380Z,69.30
2018-09-24T08:21:34.154Z,70.30
2018-09-24T08:24:07.994Z,72.20
2018-09-24T08:26:41.856Z,72.60
2018-09-24T08:29:15.661Z,74.30
2018-09-24T08:31:49.646Z,73.70
2018-09-24T08:34:23.569Z,74.80
2018-09-24T08:36:57.528Z,73.20
2018-09-24T08:39:31.505Z,74.20
2018-09-24T08:42:05.442Z,73.90
2018-09-24T08:44:39.209Z,74.10
2018-09-24T08:47:12.985Z,73.60
2018-09-24T08:49:46.836Z,72.40
2018-09-24T08:52:21.573Z,71.90
2018-09-24T08:54:55.416Z,70.20
2018-09-24T08:57:29.265Z,69.20
2018-09-24T09:00:03.172Z,68.20
2018-09-24T09:02:37.029Z,66.60
2018-09-24T09:05:11.002Z,66.70
2018-09-24T09:07:44.744Z,67.20
2018-09-24T09:10:18.401Z,66.60
2018-09-24T09:12:52.069Z,67.10
2018-09-24T09:15:25.846Z,67.40
2018-09-24T09:17:59.731Z,67.40
2018-09-24T09:20:33.798Z,67.20
2018-09-24T09:23:07.729Z,65.70
2018-09-24T09:25:41.869Z,64.50
2018-09-24T09:28:15.760Z,64.60
2018-09-24T09:30:49.712Z,64.20
2018-09-24T09:33:23.490Z,62.40
2018-09-24T09:35:57.277Z,61.80
2018-09-24T09:38:31.229Z,61.90
2018-09-24T09:41:05.051Z,59.30
2018-09-24T09:43:38.934Z,58.80
2018-09-24T09:46:12.700Z,58.50
2018-09-24T09:48:46.362Z,58.60
2018-09-24T09:51:19.980Z,59.20
2018-09-24T09:53:53.821Z,58.80
2018-09-24T09:56:27.661Z,58.50
2018-09-24T09:59:01.539Z,58.90
2018-09-24T10:01:35.186Z,57.90
2018-09-24T10:04:09.146Z,57.30
2018-09-24T10:06:42.982Z,57.50
2018-09-24T10:09:16.965Z,57.90
2018-09-24T10:11:50.807Z,55.70
2018-09-24T10:14:24.580Z,55.80
2018-09-24T10:16:58.484Z,55.00
2018-09-24T10:19:32.377Z,54.90
2018-09-24T10:22:06.204Z,55.30
2018-09-24T10:24:39.952Z,53.40
2018-09-24T10:27:13.800Z,52.50
2018-09-24T10:29:47.478Z,52.40
2018-09-24T10:32:21.429Z,52.50
2018-09-24T10:34:55.327Z,52.40
2018-09-24T10:37:29.245Z,52.70
2018-09-24T10:40:03.485Z,52.40
2018-09-24T10:42:37.230Z,51.30
2018-09-24T10:45:11.017Z,49.40
2018-09-24T10:47:44.732Z,48.70
2018-09-24T10:50:18.412Z,49.00
2018-09-24T10:52:52.356Z,49.10
2018-09-24T10:55:26.265Z,49.30
2018-09-24T10:57:59.952Z,49.80
2018-09-24T11:00:33.668Z,50.50
2018-09-24T11:03:07.357Z,50.80
2018-09-24T11:05:41.061Z,49.90
2018-09-24T11:08:14.800Z,51.50
2018-09-24T11:10:48.568Z,52.20
2018-09-24T11:13:22.425Z,53.00
2018-09-24T11:15:56.852Z,51.20
2018-09-24T11:18:30.615Z,49.90
2018-09-24T11:21:04.647Z,49.60
2018-09-24T11:23:38.584Z,48.30
2018-09-24T11:26:12.248Z,47.80
2018-09-24T11:28:46.064Z,46.50
2018-09-24T11:31:19.780Z,47.20
2018-09-24T11:33:53.615Z,45.70
2018-09-24T11:36:27.393Z,45.80
2018-09-24T11:39:01.357Z,46.30
2018-09-24T11:41:35.116Z,45.90
2018-09-24T11:44:08.862Z,44.80
2018-09-24T11:46:42.709Z,44.90
2018-09-24T11:49:16.803Z,44.30
2018-09-24T11:51:50.572Z,44.00
2018-09-24T11:54:24.228Z,44.40
2018-09-24T11:56:57.953Z,44.30
2018-09-24T11:59:31.692Z,45.10
2018-09-24T12:02:05.515Z,44.60
2018-09-24T12:04:39.370Z,44.50
2018-09-24T12:07:13.057Z,44.90
2018-09-24T12:09:46.839Z,44.00
2018-09-24T12:12:20.620Z,43.40
2018-09-24T12:14:54.456Z,44.90
2018-09-24T12:17:28.305Z,45.60
2018-09-24T12:20:02.542Z,44.60
2018-09-24T12:22:36.352Z,44.40
2018-09-24T12:25:10.197Z,43.60
2018-09-24T12:27:43.831Z,44.10
2018-09-24T12:30:17.571Z,43.60
2018-09-24T12:32:51.345Z,43.60
2018-09-24T12:35:25.246Z,42.70
2018-09-24T12:37:59.075Z,42.80
2018-09-24T12:40:32.933Z,42.80
2018-09-24T12:43:06.734Z,43.60
2018-09-24T12:45:40.478Z,43.60
2018-09-24T12:48:14.317Z,43.60
2018-09-24T12:50:48.010Z,43.00
2018-09-24T12:53:21.678Z,43.70
2018-09-24T12:55:55.691Z,43.70
2018-09-24T12:58:29.570Z,43.70
2018-09-24T13:01:03.528Z,45.00
2018-09-24T13:03:37.281Z,44.20
2018-09-24T13:06:11.263Z,44.60
2018-09-24T13:08:44.913Z,45.50
2018-09-24T13:11:18.728Z,46.30
2018-09-24T13:13:52.430Z,46.40
2018-09-24T13:16:26.595Z,46.10
2018-09-24T13:19:00.611Z,45.80
2018-09-24T13:21:34.342Z,46.50
2018-09-24T13:24:08.066Z,45.70
2018-09-24T13:26:41.977Z,45.60
2018-09-24T13:29:15.991Z,45.50
2018-09-24T13:31:49.798Z,45.90
2018-09-24T13:34:23.568Z,45.50
2018-09-24T13:36:57.265Z,45.70
2018-09-24T13:39:31.232Z,46.50
2018-09-24T13:42:11.843Z,45.00
2018-09-24T13:44:46.721Z,45.10
2018-09-24T13:47:20.817Z,45.80
2018-09-24T13:49:54.597Z,45.80
2018-09-24T13:52:28.776Z,45.40
2018-09-24T13:55:02.481Z,45.80
2018-09-24T13:57:36.345Z,45.70
2018-09-24T14:00:11.075Z,44.90
2018-09-24T14:02:45.018Z,44.70
2018-09-24T14:05:18.955Z,45.10
2018-09-24T14:07:52.905Z,44.90
2018-09-24T14:10:26.781Z,45.00
2018-09-24T14:13:00.778Z,45.20
2018-09-24T14:15:34.616Z,44.40
2018-09-24T14:18:08.190Z,43.80
2018-09-24T14:20:42.518Z,43.90
2018-09-24T14:23:16.414Z,43.80
2018-09-24T14:25:50.276Z,43.70
2018-09-24T14:28:24.241Z,45.10
2018-09-24T14:30:58.117Z,50.30
2018-09-24T14:33:35.060Z,56.90
2018-09-24T14:36:09.144Z,61.80
2018-09-24T14:38:43.007Z,63.40
2018-09-24T14:41:16.875Z,61.50
2018-09-24T14:43:50.758Z,60.00
2018-09-24T14:46:24.714Z,60.80
2018-09-24T14:48:59.293Z,60.20
2018-09-24T14:51:33.341Z,61.70
2018-09-24T14:54:06.953Z,61.30
2018-09-24T14:56:40.813Z,62.10
2018-09-24T14:59:14.572Z,63.00
2018-09-24T15:01:48.433Z,63.80
2018-09-24T15:04:22.169Z,63.70
2018-09-24T15:06:56.004Z,65.30
2018-09-24T15:09:29.736Z,66.10
2018-09-24T15:12:03.451Z,67.00
2018-09-24T15:14:37.097Z,68.10
2018-09-24T15:17:11.190Z,68.40
2018-09-24T15:19:45.004Z,68.90
2018-09-24T15:22:18.817Z,68.60
2018-09-24T15:24:52.623Z,69.10
2018-09-24T15:27:26.448Z,70.60
2018-09-24T15:30:00.306Z,70.70
2018-09-24T15:32:34.137Z,70.60
2018-09-24T15:35:07.925Z,71.50
2018-09-24T15:37:41.698Z,72.30
2018-09-24T15:40:15.400Z,72.70
2018-09-24T15:42:49.127Z,74.60
2018-09-24T15:45:23.053Z,75.50
2018-09-24T15:47:56.853Z,73.70
2018-09-24T15:50:32.621Z,71.40
2018-09-24T15:53:06.458Z,64.60
2018-09-24T15:55:40.282Z,61.00
2018-09-24T15:58:14.090Z,60.10
2018-09-24T16:00:47.817Z,60.00
2018-09-24T16:03:21.629Z,59.20
2018-09-24T16:05:55.602Z,57.80
2018-09-24T16:08:29.386Z,58.00
2018-09-24T16:11:03.088Z,57.60
2018-09-24T16:13:36.772Z,58.10
2018-09-24T16:16:10.595Z,57.40
2018-09-24T16:18:44.261Z,57.80
2018-09-24T16:21:18.100Z,57.80
2018-09-24T16:23:51.725Z,58.00
2018-09-24T16:26:26.401Z,57.50
2018-09-24T16:29:00.297Z,56.60
2018-09-24T16:31:34.144Z,56.30
2018-09-24T16:34:07.893Z,56.80
2018-09-24T16:36:41.782Z,56.80
2018-09-24T16:39:15.439Z,56.40
2018-09-24T16:41:49.325Z,56.70
2018-09-24T16:44:23.104Z,56.60
2018-09-24T16:46:56.798Z,57.00
2018-09-24T16:49:31.045Z,57.20
2018-09-24T16:52:05.001Z,57.40
2018-09-24T16:54:40.166Z,57.90
2018-09-24T16:57:14.377Z,58.50
2018-09-24T16:59:48.200Z,58.80
2018-09-24T17:02:22.161Z,59.00
2018-09-24T17:05:02.307Z,59.60
2018-09-24T17:07:36.183Z,60.30
2018-09-24T17:10:10.097Z,60.20
2018-09-24T17:12:44.176Z,60.10
2018-09-24T17:15:17.945Z,60.20
2018-09-24T17:17:51.893Z,61.70
2018-09-24T17:20:26.219Z,62.70
2018-09-24T17:23:00.033Z,62.50
2018-09-24T17:25:33.933Z,63.40
2018-09-24T17:28:07.931Z,63.70
2018-09-24T17:30:41.773Z,64.00
2018-09-24T17:33:15.583Z,64.40
2018-09-24T17:35:49.554Z,65.10
2018-09-24T17:38:23.407Z,64.90
2018-09-24T17:40:57.143Z,65.50
2018-09-24T17:43:30.766Z,65.60
2018-09-24T17:46:04.776Z,66.00
2018-09-24T17:48:38.553Z,65.90
2018-09-24T17:51:12.322Z,66.20
2018-09-24T17:53:46.088Z,66.80
2018-09-24T17:56:19.754Z,66.80
2018-09-24T17:58:53.622Z,67.30
2018-09-24T18:01:27.745Z,67.80
2018-09-24T18:04:01.740Z,68.10
2018-09-24T18:06:35.564Z,68.20
2018-09-24T18:09:09.916Z,68.20
2018-09-24T18:11:43.593Z,69.20
2018-09-24T18:14:17.310Z,69.00
2018-09-24T18:16:51.138Z,69.00
2018-09-24T18:19:24.907Z,70.40
2018-09-24T18:21:58.648Z,70.60
2018-09-24T18:24:32.531Z,70.60
2018-09-24T18:27:06.310Z,70.90
2018-09-24T18:29:40.178Z,71.10
2018-09-24T18:32:14.067Z,71.90
2018-09-24T18:34:48.036Z,72.30
2018-09-24T18:37:21.929Z,73.40
2018-09-24T18:39:55.687Z,72.00
2018-09-24T18:42:29.842Z,71.80
2018-09-24T18:45:03.811Z,72.00
2018-09-24T18:47:37.548Z,72.20
2018-09-24T18:50:11.258Z,72.20
2018-09-24T18:52:44.958Z,72.40
2018-09-24T18:55:19.083Z,72.80
2018-09-24T18:57:52.805Z,73.40
2018-09-24T19:00:26.809Z,74.10
2018-09-24T19:03:00.879Z,74.30
2018-09-24T19:05:34.667Z,74.40
2018-09-24T19:08:08.494Z,74.10
2018-09-24T19:10:42.158Z,74.20
2018-09-24T19:13:16.132Z,74.30
2018-09-24T19:15:49.952Z,74.40
2018-09-24T19:18:23.760Z,74.60
2018-09-24T19:20:57.597Z,74.90
2018-09-24T19:23:31.453Z,74.60
2018-09-24T19:26:05.195Z,75.30
2018-09-24T19:28:39.122Z,75.60
2018-09-24T19:31:13.061Z,75.70
2018-09-24T19:33:47.036Z,76.00
2018-09-24T19:36:20.975Z,76.70
2018-09-24T19:38:55.244Z,77.00
2018-09-24T19:41:29.080Z,77.20
2018-09-24T19:44:03.083Z,77.10
2018-09-24T19:46:36.915Z,77.20
2018-09-24T19:49:10.827Z,77.70
2018-09-24T19:51:44.611Z,78.30
2018-09-24T19:54:18.448Z,78.40
2018-09-24T19:56:52.276Z,78.60
2018-09-24T19:59:26.142Z,78.90
2018-09-24T20:02:00.053Z,79.10
2018-09-24T20:04:33.958Z,79.10
2018-09-24T20:07:07.968Z,79.40
2018-09-24T20:09:41.964Z,79.50
2018-09-24T20:12:15.734Z,80.50
2018-09-24T20:14:49.570Z,80.20
2018-09-24T20:17:23.566Z,80.70
2018-09-24T20:19:57.250Z,80.30
2018-09-24T20:22:31.933Z,80.00
2018-09-24T20:25:05.785Z,79.90
2018-09-24T20:27:39.587Z,79.70
2018-09-24T20:30:13.650Z,80.10
2018-09-24T20:32:47.532Z,81.00
2018-09-24T20:35:21.415Z,81.00
2018-09-24T20:37:56.382Z,80.50
2018-09-24T20:40:30.252Z,81.40
2018-09-24T20:43:04.168Z,81.40
2018-09-24T20:45:38.161Z,81.10
2018-09-24T20:48:11.930Z,80.90
2018-09-24T20:50:45.808Z,81.90
2018-09-24T20:53:19.445Z,81.00
2018-09-24T20:55:53.345Z,81.40
2018-09-24T20:58:27.229Z,81.90
2018-09-24T21:01:01.130Z,82.20
2018-09-24T21:03:34.856Z,83.00
2018-09-24T21:06:08.641Z,82.80
2018-09-24T21:08:42.492Z,82.30
2018-09-24T21:11:16.426Z,82.80
2018-09-24T21:13:50.162Z,82.90
2018-09-24T21:16:24.162Z,83.40
2018-09-24T21:18:58.078Z,84.40
2018-09-24T21:21:32.042Z,84.60
2018-09-24T21:24:05.925Z,84.30
2018-09-24T21:26:39.744Z,83.90
2018-09-24T21:29:13.546Z,83.80
2018-09-24T21:31:47.297Z,83.90
2018-09-24T21:34:21.253Z,84.20
2018-09-24T21:36:55.181Z,85.20
2018-09-24T21:39:29.183Z,85.00
2018-09-24T21:42:03.025Z,84.50
2018-09-24T21:44:37.061Z,84.70
2018-09-24T21:47:11.032Z,83.70
2018-09-24T21:49:44.885Z,84.10
2018-09-24T21:52:18.540Z,84.60
2018-09-24T21:54:52.441Z,85.10
2018-09-24T21:57:26.328Z,85.40
2018-09-24T22:00:00.221Z,85.60
2018-09-24T22:02:33.964Z,85.00
2018-09-24T22:05:07.601Z,85.20
2018-09-24T22:07:41.369Z,86.00
2018-09-24T22:10:15.189Z,86.00
2018-09-24T22:12:48.907Z,85.90
2018-09-24T22:15:22.863Z,86.30
2018-09-24T22:17:56.858Z,86.50
2018-09-24T22:20:30.694Z,86.40
2018-09-24T22:23:04.626Z,87.20
2018-09-24T22:25:38.377Z,86.30
2018-09-24T22:28:12.574Z,85.80
2018-09-24T22:30:46.361Z,86.00
2018-09-24T22:33:20.039Z,85.90
2018-09-24T22:35:53.840Z,85.70
2018-09-24T22:38:27.785Z,87.40
2018-09-24T22:41:01.841Z,87.10
2018-09-24T22:43:35.641Z,85.70
2018-09-24T22:46:09.421Z,85.10
2018-09-24T22:48:43.369Z,85.70
2018-09-24T22:51:17.157Z,85.70
2018-09-24T22:53:50.886Z,85.60
2018-09-24T22:56:24.763Z,85.60
2018-09-24T22:58:58.540Z,86.50
2018-09-24T23:01:32.619Z,87.80
2018-09-24T23:04:06.619Z,88.30
2018-09-24T23:06:40.451Z,88.30
2018-09-24T23:09:14.638Z,88.60
2018-09-24T23:11:48.455Z,88.70
2018-09-24T23:14:22.437Z,88.40
2018-09-24T23:16:56.514Z,86.90
2018-09-24T23:19:30.473Z,87.80
2018-09-24T23:22:04.320Z,89.10
2018-09-24T23:24:38.129Z,89.10
2018-09-24T23:27:12.045Z,88.40
2018-09-24T23:29:45.827Z,88.60
2018-09-24T23:32:19.680Z,88.90
2018-09-24T23:34:53.472Z,87.40
2018-09-24T23:37:27.245Z,87.80
2018-09-24T23:40:00.945Z,87.50
2018-09-24T23:42:34.843Z,88.60
2018-09-24T23:45:08.739Z,88.70
2018-09-24T23:47:42.701Z,89.00
2018-09-24T23:50:16.454Z,89.60
2018-09-24T23:52:50.161Z,88.60
2018-09-24T23:55:24.034Z,90.00
2018-09-24T23:57:57.966Z,89.10
